Bouse, Arizona
Current Conditions -  °F | °C
As of 7:52 PM on Wednesday 26 Nov 2014 (Local Time) from KBLH Reporting Station
Clear Clear  
Wind Chill: 62°   Ceiling: Unl
Heat Index: 62°   Visibility: 10mi
Dew Point: 17°   Wind: 6mph
Humidity: 18%   Direction: 330°NNW
Pressure: 30.18"   Gusts: NA
Location:  33.93°N, 114.01°W
Report Text: KBLH 270252Z AUTO 33005KT 10SM CLR 17/M08 A3018 RMK AO2 SLP218 T01671083 55000
Loading
Personal Weather Stations






























Interactive Weather Map New forecast layout! Learn more

10-Day Weather Forecast

Advertisements
Track Severe Weather on mobile